sensor_id;sensor_type;location;lat;lon;timestamp;P1;durP1;ratioP1;P2;durP2;ratioP2
30697;SDS011;17448;47.200;10.902;2023-05-03T00:01:36;5.38;;;4.00;;
30697;SDS011;17448;47.200;10.902;2023-05-03T00:04:02;6.43;;;4.20;;
30697;SDS011;17448;47.200;10.902;2023-05-03T00:06:28;8.90;;;3.80;;
30697;SDS011;17448;47.200;10.902;2023-05-03T00:08:55;8.02;;;4.05;;
30697;SDS011;17448;47.200;10.902;2023-05-03T00:11:22;4.85;;;3.90;;
30697;SDS011;17448;47.200;10.902;2023-05-03T00:13:48;7.68;;;3.80;;
30697;SDS011;17448;47.200;10.902;2023-05-03T00:21:40;6.00;;;4.28;;
30697;SDS011;17448;47.200;10.902;2023-05-03T00:24:06;7.15;;;4.57;;
30697;SDS011;17448;47.200;10.902;2023-05-03T00:26:33;7.07;;;4.65;;
30697;SDS011;17448;47.200;10.902;2023-05-03T00:29:00;6.18;;;4.65;;
30697;SDS011;17448;47.200;10.902;2023-05-03T00:31:26;5.93;;;4.53;;
30697;SDS011;17448;47.200;10.902;2023-05-03T00:33:53;5.03;;;4.38;;
30697;SDS011;17448;47.200;10.902;2023-05-03T00:36:19;6.30;;;4.15;;
30697;SDS011;17448;47.200;10.902;2023-05-03T00:38:46;6.60;;;4.53;;
30697;SDS011;17448;47.200;10.902;2023-05-03T00:41:12;6.07;;;4.20;;
30697;SDS011;17448;47.200;10.902;2023-05-03T00:46:14;5.63;;;4.30;;
30697;SDS011;17448;47.200;10.902;2023-05-03T00:48:40;6.82;;;4.15;;
30697;SDS011;17448;47.200;10.902;2023-05-03T00:51:07;5.65;;;4.15;;
30697;SDS011;17448;47.200;10.902;2023-05-03T00:53:34;6.90;;;4.32;;
30697;SDS011;17448;47.200;10.902;2023-05-03T00:58:34;8.68;;;4.55;;
30697;SDS011;17448;47.200;10.902;2023-05-03T01:18:29;9.50;;;4.72;;
30697;SDS011;17448;47.200;10.902;2023-05-03T01:20:59;7.05;;;5.43;;
30697;SDS011;17448;47.200;10.902;2023-05-03T01:26:40;6.93;;;4.63;;
30697;SDS011;17448;47.200;10.902;2023-05-03T01:29:06;6.88;;;5.03;;
30697;SDS011;17448;47.200;10.902;2023-05-03T01:31:43;8.13;;;6.07;;
30697;SDS011;17448;47.200;10.902;2023-05-03T01:36:44;7.05;;;5.25;;
30697;SDS011;17448;47.200;10.902;2023-05-03T01:39:21;7.82;;;4.95;;
30697;SDS011;17448;47.200;10.902;2023-05-03T01:41:48;6.90;;;4.47;;
30697;SDS011;17448;47.200;10.902;2023-05-03T01:44:19;6.18;;;4.82;;
30697;SDS011;17448;47.200;10.902;2023-05-03T01:46:46;6.45;;;5.40;;
30697;SDS011;17448;47.200;10.902;2023-05-03T01:49:13;7.28;;;4.90;;
30697;SDS011;17448;47.200;10.902;2023-05-03T01:51:40;4.88;;;4.13;;
30697;SDS011;17448;47.200;10.902;2023-05-03T01:57:10;7.68;;;5.20;;
30697;SDS011;17448;47.200;10.902;2023-05-03T01:59:36;6.75;;;5.10;;
30697;SDS011;17448;47.200;10.902;2023-05-03T02:02:02;7.25;;;4.97;;
30697;SDS011;17448;47.200;10.902;2023-05-03T02:04:29;11.70;;;5.85;;
30697;SDS011;17448;47.200;10.902;2023-05-03T02:09:45;8.48;;;5.03;;
30697;SDS011;17448;47.200;10.902;2023-05-03T02:12:12;7.93;;;5.30;;
30697;SDS011;17448;47.200;10.902;2023-05-03T02:20:16;6.85;;;5.30;;
30697;SDS011;17448;47.200;10.902;2023-05-03T02:22:42;7.07;;;5.82;;
30697;SDS011;17448;47.200;10.902;2023-05-03T02:25:09;6.07;;;4.85;;
30697;SDS011;17448;47.200;10.902;2023-05-03T02:27:36;9.27;;;5.70;;
30697;SDS011;17448;47.200;10.902;2023-05-03T02:30:02;8.05;;;4.88;;
30697;SDS011;17448;47.200;10.902;2023-05-03T02:32:39;7.68;;;5.10;;
30697;SDS011;17448;47.200;10.902;2023-05-03T02:35:07;7.97;;;5.35;;
30697;SDS011;17448;47.200;10.902;2023-05-03T02:37:33;7.65;;;5.20;;
30697;SDS011;17448;47.200;10.902;2023-05-03T02:40:05;11.15;;;5.60;;
30697;SDS011;17448;47.200;10.902;2023-05-03T02:42:31;7.40;;;4.63;;
30697;SDS011;17448;47.200;10.902;2023-05-03T02:48:01;6.55;;;4.75;;
30697;SDS011;17448;47.200;10.902;2023-05-03T02:50:31;6.00;;;4.28;;
30697;SDS011;17448;47.200;10.902;2023-05-03T02:55:29;8.20;;;5.30;;
30697;SDS011;17448;47.200;10.902;2023-05-03T02:57:56;5.78;;;4.65;;
30697;SDS011;17448;47.200;10.902;2023-05-03T03:03:12;8.27;;;5.43;;
30697;SDS011;17448;47.200;10.902;2023-05-03T03:05:38;8.75;;;5.38;;
30697;SDS011;17448;47.200;10.902;2023-05-03T03:08:05;8.77;;;5.13;;
30697;SDS011;17448;47.200;10.902;2023-05-03T03:10:31;8.48;;;5.47;;
30697;SDS011;17448;47.200;10.902;2023-05-03T03:12:58;7.38;;;5.68;;
30697;SDS011;17448;47.200;10.902;2023-05-03T03:15:31;8.35;;;5.57;;
30697;SDS011;17448;47.200;10.902;2023-05-03T03:17:58;6.40;;;4.90;;
30697;SDS011;17448;47.200;10.902;2023-05-03T03:20:25;7.50;;;4.78;;
30697;SDS011;17448;47.200;10.902;2023-05-03T03:22:53;11.77;;;4.90;;
30697;SDS011;17448;47.200;10.902;2023-05-03T03:25:20;7.00;;;4.90;;
30697;SDS011;17448;47.200;10.902;2023-05-03T03:27:47;7.53;;;5.05;;
30697;SDS011;17448;47.200;10.902;2023-05-03T03:30:17;6.65;;;4.90;;
30697;SDS011;17448;47.200;10.902;2023-05-03T03:33:04;7.25;;;5.22;;
30697;SDS011;17448;47.200;10.902;2023-05-03T03:35:36;8.15;;;5.57;;
30697;SDS011;17448;47.200;10.902;2023-05-03T03:38:04;7.57;;;5.13;;
30697;SDS011;17448;47.200;10.902;2023-05-03T03:40:37;8.30;;;5.13;;
30697;SDS011;17448;47.200;10.902;2023-05-03T03:43:04;7.38;;;5.20;;
30697;SDS011;17448;47.200;10.902;2023-05-03T03:45:31;7.75;;;4.80;;
30697;SDS011;17448;47.200;10.902;2023-05-03T03:47:58;7.03;;;5.35;;
30697;SDS011;17448;47.200;10.902;2023-05-03T03:50:25;6.40;;;4.32;;
30697;SDS011;17448;47.200;10.902;2023-05-03T03:52:52;7.53;;;5.10;;
30697;SDS011;17448;47.200;10.902;2023-05-03T04:01:06;6.22;;;4.85;;
30697;SDS011;17448;47.200;10.902;2023-05-03T04:06:33;7.60;;;5.22;;
30697;SDS011;17448;47.200;10.902;2023-05-03T04:09:04;7.10;;;5.05;;
30697;SDS011;17448;47.200;10.902;2023-05-03T04:17:00;7.40;;;4.82;;
30697;SDS011;17448;47.200;10.902;2023-05-03T04:19:26;7.75;;;5.32;;
30697;SDS011;17448;47.200;10.902;2023-05-03T04:21:53;20.75;;;6.40;;
30697;SDS011;17448;47.200;10.902;2023-05-03T04:24:20;6.78;;;5.43;;
30697;SDS011;17448;47.200;10.902;2023-05-03T04:26:51;8.88;;;6.20;;
30697;SDS011;17448;47.200;10.902;2023-05-03T04:35:03;9.00;;;5.13;;
30697;SDS011;17448;47.200;10.902;2023-05-03T04:37:37;11.65;;;6.10;;
30697;SDS011;17448;47.200;10.902;2023-05-03T04:40:04;8.75;;;5.18;;
30697;SDS011;17448;47.200;10.902;2023-05-03T04:42:37;7.15;;;5.60;;
30697;SDS011;17448;47.200;10.902;2023-05-03T04:47:43;6.40;;;5.70;;
30697;SDS011;17448;47.200;10.902;2023-05-03T04:50:09;9.07;;;4.93;;
30697;SDS011;17448;47.200;10.902;2023-05-03T04:52:39;6.82;;;5.25;;
30697;SDS011;17448;47.200;10.902;2023-05-03T04:55:05;9.82;;;6.40;;
30697;SDS011;17448;47.200;10.902;2023-05-03T05:00:26;6.40;;;5.18;;
30697;SDS011;17448;47.200;10.902;2023-05-03T05:03:01;13.77;;;5.10;;
30697;SDS011;17448;47.200;10.902;2023-05-03T05:05:33;9.20;;;5.28;;
30697;SDS011;17448;47.200;10.902;2023-05-03T05:36:03;7.03;;;5.67;;
30697;SDS011;17448;47.200;10.902;2023-05-03T05:38:32;6.43;;;5.32;;
30697;SDS011;17448;47.200;10.902;2023-05-03T05:40:59;9.55;;;6.00;;
30697;SDS011;17448;47.200;10.902;2023-05-03T05:43:28;9.98;;;6.18;;
30697;SDS011;17448;47.200;10.902;2023-05-03T05:45:58;9.00;;;5.63;;
30697;SDS011;17448;47.200;10.902;2023-05-03T05:48:24;8.30;;;5.70;;
30697;SDS011;17448;47.200;10.902;2023-05-03T05:50:51;10.77;;;5.82;;
30697;SDS011;17448;47.200;10.902;2023-05-03T05:53:20;9.02;;;5.90;;
30697;SDS011;17448;47.200;10.902;2023-05-03T05:55:55;7.85;;;5.88;;
30697;SDS011;17448;47.200;10.902;2023-05-03T06:12:28;10.97;;;6.43;;
30697;SDS011;17448;47.200;10.902;2023-05-03T06:27:06;6.77;;;4.50;;
30697;SDS011;17448;47.200;10.902;2023-05-03T06:38:42;7.67;;;4.53;;
30697;SDS011;17448;47.200;10.902;2023-05-03T06:41:08;9.60;;;5.80;;
30697;SDS011;17448;47.200;10.902;2023-05-03T06:49:13;8.50;;;6.18;;
30697;SDS011;17448;47.200;10.902;2023-05-03T07:01:19;5.90;;;4.53;;
30697;SDS011;17448;47.200;10.902;2023-05-03T07:06:21;4.53;;;3.75;;
30697;SDS011;17448;47.200;10.902;2023-05-03T07:08:51;4.18;;;3.13;;
30697;SDS011;17448;47.200;10.902;2023-05-03T08:19:50;4.47;;;3.10;;
30697;SDS011;17448;47.200;10.902;2023-05-03T08:25:20;4.50;;;3.30;;
30697;SDS011;17448;47.200;10.902;2023-05-03T08:27:47;4.80;;;3.88;;
30697;SDS011;17448;47.200;10.902;2023-05-03T08:56:22;3.10;;;2.60;;
30697;SDS011;17448;47.200;10.902;2023-05-03T09:44:01;3.17;;;2.88;;
30697;SDS011;17448;47.200;10.902;2023-05-03T09:58:56;2.85;;;2.40;;
30697;SDS011;17448;47.200;10.902;2023-05-03T10:13:14;3.80;;;2.30;;
30697;SDS011;17448;47.200;10.902;2023-05-03T10:49:22;3.33;;;2.03;;
30697;SDS011;17448;47.200;10.902;2023-05-03T10:54:57;1.70;;;1.60;;
30697;SDS011;17448;47.200;10.902;2023-05-03T10:57:28;2.95;;;1.83;;
30697;SDS011;17448;47.200;10.902;2023-05-03T10:59:57;2.22;;;1.80;;
30697;SDS011;17448;47.200;10.902;2023-05-03T11:02:26;2.47;;;1.80;;
30697;SDS011;17448;47.200;10.902;2023-05-03T11:04:54;2.00;;;1.75;;
30697;SDS011;17448;47.200;10.902;2023-05-03T11:07:23;3.08;;;2.22;;
30697;SDS011;17448;47.200;10.902;2023-05-03T11:09:50;4.15;;;1.98;;
30697;SDS011;17448;47.200;10.902;2023-05-03T11:12:17;2.05;;;1.85;;
30697;SDS011;17448;47.200;10.902;2023-05-03T11:24:41;2.67;;;1.48;;
30697;SDS011;17448;47.200;10.902;2023-05-03T11:27:10;2.60;;;2.38;;
30697;SDS011;17448;47.200;10.902;2023-05-03T11:32:14;2.45;;;1.95;;
30697;SDS011;17448;47.200;10.902;2023-05-03T11:34:44;2.75;;;2.03;;
30697;SDS011;17448;47.200;10.902;2023-05-03T11:37:14;2.88;;;1.80;;
30697;SDS011;17448;47.200;10.902;2023-05-03T11:39:54;1.98;;;1.60;;
30697;SDS011;17448;47.200;10.902;2023-05-03T11:42:59;1.67;;;1.50;;
30697;SDS011;17448;47.200;10.902;2023-05-03T11:48:05;2.42;;;1.60;;
30697;SDS011;17448;47.200;10.902;2023-05-03T11:50:47;1.63;;;1.52;;
30697;SDS011;17448;47.200;10.902;2023-05-03T11:53:23;2.67;;;1.75;;
30697;SDS011;17448;47.200;10.902;2023-05-03T11:55:52;1.60;;;1.50;;
30697;SDS011;17448;47.200;10.902;2023-05-03T11:58:20;1.73;;;1.50;;
30697;SDS011;17448;47.200;10.902;2023-05-03T12:00:48;3.58;;;1.70;;
30697;SDS011;17448;47.200;10.902;2023-05-03T12:03:19;1.55;;;1.40;;
30697;SDS011;17448;47.200;10.902;2023-05-03T12:05:46;2.03;;;1.40;;
30697;SDS011;17448;47.200;10.902;2023-05-03T12:08:13;1.88;;;1.55;;
30697;SDS011;17448;47.200;10.902;2023-05-03T12:10:42;2.33;;;1.63;;
30697;SDS011;17448;47.200;10.902;2023-05-03T12:13:09;1.83;;;1.58;;
30697;SDS011;17448;47.200;10.902;2023-05-03T12:15:37;1.83;;;1.50;;
30697;SDS011;17448;47.200;10.902;2023-05-03T12:18:10;1.73;;;1.58;;
30697;SDS011;17448;47.200;10.902;2023-05-03T12:20:37;2.55;;;1.25;;
30697;SDS011;17448;47.200;10.902;2023-05-03T12:23:05;4.32;;;1.40;;
30697;SDS011;17448;47.200;10.902;2023-05-03T12:25:51;1.35;;;1.25;;
30697;SDS011;17448;47.200;10.902;2023-05-03T12:28:17;1.50;;;1.17;;
30697;SDS011;17448;47.200;10.902;2023-05-03T12:30:44;2.40;;;1.40;;
30697;SDS011;17448;47.200;10.902;2023-05-03T12:33:10;1.33;;;1.20;;
30697;SDS011;17448;47.200;10.902;2023-05-03T12:35:37;2.33;;;1.40;;
30697;SDS011;17448;47.200;10.902;2023-05-03T12:38:03;1.70;;;1.60;;
30697;SDS011;17448;47.200;10.902;2023-05-03T12:40:31;1.50;;;1.20;;
30697;SDS011;17448;47.200;10.902;2023-05-03T12:42:58;3.63;;;1.40;;
30697;SDS011;17448;47.200;10.902;2023-05-03T12:45:26;4.75;;;1.70;;
30697;SDS011;17448;47.200;10.902;2023-05-03T12:47:54;3.03;;;1.45;;
30697;SDS011;17448;47.200;10.902;2023-05-03T12:50:21;2.63;;;1.20;;
30697;SDS011;17448;47.200;10.902;2023-05-03T12:52:47;2.38;;;1.48;;
30697;SDS011;17448;47.200;10.902;2023-05-03T12:55:15;3.28;;;1.38;;
30697;SDS011;17448;47.200;10.902;2023-05-03T12:57:47;1.70;;;1.58;;
30697;SDS011;17448;47.200;10.902;2023-05-03T13:00:16;2.13;;;1.57;;
30697;SDS011;17448;47.200;10.902;2023-05-03T13:02:51;2.72;;;1.58;;
30697;SDS011;17448;47.200;10.902;2023-05-03T13:05:30;2.38;;;1.40;;
30697;SDS011;17448;47.200;10.902;2023-05-03T13:07:56;1.83;;;1.38;;
30697;SDS011;17448;47.200;10.902;2023-05-03T13:10:23;1.70;;;1.50;;
30697;SDS011;17448;47.200;10.902;2023-05-03T13:12:53;1.50;;;1.40;;
30697;SDS011;17448;47.200;10.902;2023-05-03T13:15:21;1.48;;;1.23;;
30697;SDS011;17448;47.200;10.902;2023-05-03T13:17:49;1.42;;;1.33;;
30697;SDS011;17448;47.200;10.902;2023-05-03T13:20:19;1.58;;;1.27;;
30697;SDS011;17448;47.200;10.902;2023-05-03T13:22:46;1.38;;;1.27;;
30697;SDS011;17448;47.200;10.902;2023-05-03T13:25:13;2.13;;;1.40;;
30697;SDS011;17448;47.200;10.902;2023-05-03T13:27:40;1.67;;;1.15;;
30697;SDS011;17448;47.200;10.902;2023-05-03T13:32:59;1.55;;;1.33;;
30697;SDS011;17448;47.200;10.902;2023-05-03T13:35:27;2.50;;;1.20;;
30697;SDS011;17448;47.200;10.902;2023-05-03T13:37:55;1.83;;;1.27;;
30697;SDS011;17448;47.200;10.902;2023-05-03T13:40:23;1.30;;;1.20;;
30697;SDS011;17448;47.200;10.902;2023-05-03T13:42:50;1.60;;;1.02;;
30697;SDS011;17448;47.200;10.902;2023-05-03T13:45:18;1.30;;;1.20;;
30697;SDS011;17448;47.200;10.902;2023-05-03T13:47:44;2.50;;;1.13;;
30697;SDS011;17448;47.200;10.902;2023-05-03T13:50:15;1.40;;;1.30;;
30697;SDS011;17448;47.200;10.902;2023-05-03T13:52:42;1.50;;;1.40;;
30697;SDS011;17448;47.200;10.902;2023-05-03T13:55:09;1.52;;;1.30;;
30697;SDS011;17448;47.200;10.902;2023-05-03T13:57:35;1.83;;;1.17;;
30697;SDS011;17448;47.200;10.902;2023-05-03T14:00:02;1.45;;;1.20;;
30697;SDS011;17448;47.200;10.902;2023-05-03T14:02:31;2.15;;;1.50;;
30697;SDS011;17448;47.200;10.902;2023-05-03T14:04:57;3.80;;;1.40;;
30697;SDS011;17448;47.200;10.902;2023-05-03T14:07:24;1.92;;;1.40;;
30697;SDS011;17448;47.200;10.902;2023-05-03T14:09:51;3.15;;;1.23;;
30697;SDS011;17448;47.200;10.902;2023-05-03T14:12:17;1.38;;;1.25;;
30697;SDS011;17448;47.200;10.902;2023-05-03T14:14:43;2.40;;;1.50;;
30697;SDS011;17448;47.200;10.902;2023-05-03T14:17:10;1.45;;;1.15;;
30697;SDS011;17448;47.200;10.902;2023-05-03T14:19:37;2.30;;;1.38;;
30697;SDS011;17448;47.200;10.902;2023-05-03T14:22:04;1.30;;;1.20;;
30697;SDS011;17448;47.200;10.902;2023-05-03T14:24:31;1.83;;;1.20;;
30697;SDS011;17448;47.200;10.902;2023-05-03T14:27:00;1.75;;;1.55;;
30697;SDS011;17448;47.200;10.902;2023-05-03T14:29:28;6.40;;;1.58;;
30697;SDS011;17448;47.200;10.902;2023-05-03T14:31:55;1.33;;;1.05;;
30697;SDS011;17448;47.200;10.902;2023-05-03T14:34:22;2.58;;;1.52;;
30697;SDS011;17448;47.200;10.902;2023-05-03T14:36:53;1.30;;;1.20;;
30697;SDS011;17448;47.200;10.902;2023-05-03T14:39:19;1.40;;;1.15;;
30697;SDS011;17448;47.200;10.902;2023-05-03T14:41:49;3.78;;;1.30;;
30697;SDS011;17448;47.200;10.902;2023-05-03T14:44:17;3.15;;;1.40;;
30697;SDS011;17448;47.200;10.902;2023-05-03T14:46:47;3.92;;;1.63;;
30697;SDS011;17448;47.200;10.902;2023-05-03T14:52:07;1.52;;;1.23;;
30697;SDS011;17448;47.200;10.902;2023-05-03T15:03:10;1.42;;;1.20;;
30697;SDS011;17448;47.200;10.902;2023-05-03T15:05:48;3.08;;;2.78;;
30697;SDS011;17448;47.200;10.902;2023-05-03T15:08:21;4.63;;;1.35;;
30697;SDS011;17448;47.200;10.902;2023-05-03T15:11:11;1.35;;;1.10;;
30697;SDS011;17448;47.200;10.902;2023-05-03T15:13:44;1.55;;;1.30;;
30697;SDS011;17448;47.200;10.902;2023-05-03T15:16:22;1.58;;;1.30;;
30697;SDS011;17448;47.200;10.902;2023-05-03T15:19:00;2.35;;;1.30;;
30697;SDS011;17448;47.200;10.902;2023-05-03T15:21:30;2.15;;;1.30;;
30697;SDS011;17448;47.200;10.902;2023-05-03T15:23:59;2.15;;;1.50;;
30697;SDS011;17448;47.200;10.902;2023-05-03T15:29:09;1.75;;;1.33;;
30697;SDS011;17448;47.200;10.902;2023-05-03T15:31:40;2.08;;;1.73;;
30697;SDS011;17448;47.200;10.902;2023-05-03T15:34:11;2.50;;;1.25;;
30697;SDS011;17448;47.200;10.902;2023-05-03T15:36:46;1.75;;;1.20;;
30697;SDS011;17448;47.200;10.902;2023-05-03T15:39:17;4.50;;;1.50;;
30697;SDS011;17448;47.200;10.902;2023-05-03T15:41:47;1.10;;;1.00;;
30697;SDS011;17448;47.200;10.902;2023-05-03T15:44:19;1.23;;;1.13;;
30697;SDS011;17448;47.200;10.902;2023-05-03T15:53:22;1.50;;;1.35;;
30697;SDS011;17448;47.200;10.902;2023-05-03T15:59:06;1.95;;;1.30;;
30697;SDS011;17448;47.200;10.902;2023-05-03T16:01:41;2.00;;;1.50;;
30697;SDS011;17448;47.200;10.902;2023-05-03T16:04:16;1.25;;;1.15;;
30697;SDS011;17448;47.200;10.902;2023-05-03T16:06:48;2.45;;;2.25;;
30697;SDS011;17448;47.200;10.902;2023-05-03T16:09:29;1.60;;;1.50;;
30697;SDS011;17448;47.200;10.902;2023-05-03T16:12:17;1.63;;;1.23;;
30697;SDS011;17448;47.200;10.902;2023-05-03T16:18:15;1.63;;;1.27;;
30697;SDS011;17448;47.200;10.902;2023-05-03T16:21:12;2.08;;;1.45;;
30697;SDS011;17448;47.200;10.902;2023-05-03T16:24:00;1.95;;;1.30;;
30697;SDS011;17448;47.200;10.902;2023-05-03T16:26:40;1.52;;;1.38;;
30697;SDS011;17448;47.200;10.902;2023-05-03T16:33:08;2.20;;;1.20;;
30697;SDS011;17448;47.200;10.902;2023-05-03T16:35:37;1.30;;;1.23;;
30697;SDS011;17448;47.200;10.902;2023-05-03T16:38:06;2.15;;;1.63;;
30697;SDS011;17448;47.200;10.902;2023-05-03T16:40:33;1.80;;;1.50;;
30697;SDS011;17448;47.200;10.902;2023-05-03T16:43:04;3.90;;;1.50;;
30697;SDS011;17448;47.200;10.902;2023-05-03T16:45:32;1.33;;;1.20;;
30697;SDS011;17448;47.200;10.902;2023-05-03T16:50:44;3.00;;;1.45;;
30697;SDS011;17448;47.200;10.902;2023-05-03T16:53:10;2.45;;;1.48;;
30697;SDS011;17448;47.200;10.902;2023-05-03T16:55:38;2.15;;;1.40;;
30697;SDS011;17448;47.200;10.902;2023-05-03T16:58:05;2.13;;;1.60;;
30697;SDS011;17448;47.200;10.902;2023-05-03T17:00:32;1.83;;;1.30;;
30697;SDS011;17448;47.200;10.902;2023-05-03T17:02:58;1.85;;;1.45;;
30697;SDS011;17448;47.200;10.902;2023-05-03T17:05:25;2.05;;;1.75;;
30697;SDS011;17448;47.200;10.902;2023-05-03T17:07:57;2.53;;;1.80;;
30697;SDS011;17448;47.200;10.902;2023-05-03T17:10:25;1.70;;;1.45;;
30697;SDS011;17448;47.200;10.902;2023-05-03T17:12:53;1.65;;;1.55;;
30697;SDS011;17448;47.200;10.902;2023-05-03T17:15:26;3.28;;;1.85;;
30697;SDS011;17448;47.200;10.902;2023-05-03T17:17:52;3.03;;;1.63;;
30697;SDS011;17448;47.200;10.902;2023-05-03T17:20:19;2.17;;;1.83;;
30697;SDS011;17448;47.200;10.902;2023-05-03T17:22:53;2.53;;;1.60;;
30697;SDS011;17448;47.200;10.902;2023-05-03T17:25:20;2.55;;;1.75;;
30697;SDS011;17448;47.200;10.902;2023-05-03T17:27:47;2.08;;;1.88;;
30697;SDS011;17448;47.200;10.902;2023-05-03T17:30:16;1.60;;;1.50;;
30697;SDS011;17448;47.200;10.902;2023-05-03T17:32:44;1.85;;;1.40;;
30697;SDS011;17448;47.200;10.902;2023-05-03T17:35:11;1.45;;;1.35;;
30697;SDS011;17448;47.200;10.902;2023-05-03T17:40:11;3.92;;;1.60;;
30697;SDS011;17448;47.200;10.902;2023-05-03T17:42:40;2.65;;;2.10;;
30697;SDS011;17448;47.200;10.902;2023-05-03T17:45:09;1.90;;;1.70;;
30697;SDS011;17448;47.200;10.902;2023-05-03T17:54:11;2.10;;;1.67;;
30697;SDS011;17448;47.200;10.902;2023-05-03T17:56:42;1.77;;;1.58;;
30697;SDS011;17448;47.200;10.902;2023-05-03T17:59:11;3.30;;;2.00;;
30697;SDS011;17448;47.200;10.902;2023-05-03T18:10:34;3.95;;;2.03;;
30697;SDS011;17448;47.200;10.902;2023-05-03T18:13:11;3.20;;;2.22;;
30697;SDS011;17448;47.200;10.902;2023-05-03T19:11:54;3.88;;;2.10;;
30697;SDS011;17448;47.200;10.902;2023-05-03T19:17:24;4.00;;;2.53;;
30697;SDS011;17448;47.200;10.902;2023-05-03T19:28:19;2.92;;;2.60;;
30697;SDS011;17448;47.200;10.902;2023-05-03T19:33:57;3.67;;;2.50;;
30697;SDS011;17448;47.200;10.902;2023-05-03T19:36:24;3.45;;;2.40;;
30697;SDS011;17448;47.200;10.902;2023-05-03T19:44:29;2.30;;;2.10;;
30697;SDS011;17448;47.200;10.902;2023-05-03T19:49:45;5.55;;;2.92;;
30697;SDS011;17448;47.200;10.902;2023-05-03T19:52:12;4.20;;;2.05;;
30697;SDS011;17448;47.200;10.902;2023-05-03T20:00:32;7.13;;;2.42;;
30697;SDS011;17448;47.200;10.902;2023-05-03T20:09:05;2.88;;;2.30;;
30697;SDS011;17448;47.200;10.902;2023-05-03T20:11:31;6.15;;;2.67;;
30697;SDS011;17448;47.200;10.902;2023-05-03T20:13:58;5.03;;;3.03;;
30697;SDS011;17448;47.200;10.902;2023-05-03T20:16:24;5.75;;;2.47;;
30697;SDS011;17448;47.200;10.902;2023-05-03T20:25:00;3.03;;;2.67;;
30697;SDS011;17448;47.200;10.902;2023-05-03T20:27:26;4.82;;;2.47;;
30697;SDS011;17448;47.200;10.902;2023-05-03T20:29:53;5.07;;;2.30;;
30697;SDS011;17448;47.200;10.902;2023-05-03T20:32:20;4.03;;;2.42;;
30697;SDS011;17448;47.200;10.902;2023-05-03T20:34:47;2.28;;;2.08;;
30697;SDS011;17448;47.200;10.902;2023-05-03T20:37:14;5.65;;;2.50;;
30697;SDS011;17448;47.200;10.902;2023-05-03T20:39:43;4.88;;;2.40;;
30697;SDS011;17448;47.200;10.902;2023-05-03T20:42:10;4.03;;;2.17;;
30697;SDS011;17448;47.200;10.902;2023-05-03T20:44:36;4.22;;;2.65;;
30697;SDS011;17448;47.200;10.902;2023-05-03T20:47:03;3.90;;;2.30;;
30697;SDS011;17448;47.200;10.902;2023-05-03T20:49:33;4.22;;;2.95;;
30697;SDS011;17448;47.200;10.902;2023-05-03T20:51:59;2.95;;;2.38;;
30697;SDS011;17448;47.200;10.902;2023-05-03T20:54:25;6.13;;;2.78;;
30697;SDS011;17448;47.200;10.902;2023-05-03T20:56:52;4.90;;;2.90;;
30697;SDS011;17448;47.200;10.902;2023-05-03T20:59:18;3.58;;;2.78;;
30697;SDS011;17448;47.200;10.902;2023-05-03T21:01:45;6.47;;;2.70;;
30697;SDS011;17448;47.200;10.902;2023-05-03T21:04:11;5.30;;;2.78;;
30697;SDS011;17448;47.200;10.902;2023-05-03T21:06:38;4.97;;;3.00;;
30697;SDS011;17448;47.200;10.902;2023-05-03T21:11:56;5.95;;;2.90;;
30697;SDS011;17448;47.200;10.902;2023-05-03T21:14:23;4.72;;;3.00;;
30697;SDS011;17448;47.200;10.902;2023-05-03T21:16:49;3.83;;;2.80;;
30697;SDS011;17448;47.200;10.902;2023-05-03T21:19:16;4.75;;;3.17;;
30697;SDS011;17448;47.200;10.902;2023-05-03T21:21:42;3.70;;;2.50;;
30697;SDS011;17448;47.200;10.902;2023-05-03T21:24:09;5.55;;;2.95;;
30697;SDS011;17448;47.200;10.902;2023-05-03T21:26:35;5.70;;;3.10;;
30697;SDS011;17448;47.200;10.902;2023-05-03T21:29:02;3.97;;;3.03;;
30697;SDS011;17448;47.200;10.902;2023-05-03T21:31:28;5.35;;;2.63;;
30697;SDS011;17448;47.200;10.902;2023-05-03T21:33:55;7.63;;;3.00;;
30697;SDS011;17448;47.200;10.902;2023-05-03T21:36:22;4.78;;;3.08;;
30697;SDS011;17448;47.200;10.902;2023-05-03T21:38:49;3.13;;;2.80;;
30697;SDS011;17448;47.200;10.902;2023-05-03T21:41:16;5.18;;;2.60;;
30697;SDS011;17448;47.200;10.902;2023-05-03T21:43:42;3.95;;;2.83;;
30697;SDS011;17448;47.200;10.902;2023-05-03T21:46:09;3.95;;;2.45;;
30697;SDS011;17448;47.200;10.902;2023-05-03T21:51:20;6.18;;;3.08;;
30697;SDS011;17448;47.200;10.902;2023-05-03T21:53:47;4.82;;;3.25;;
30697;SDS011;17448;47.200;10.902;2023-05-03T21:56:14;4.43;;;2.70;;
30697;SDS011;17448;47.200;10.902;2023-05-03T22:01:13;4.95;;;3.15;;
30697;SDS011;17448;47.200;10.902;2023-05-03T22:03:40;4.70;;;3.10;;
30697;SDS011;17448;47.200;10.902;2023-05-03T22:06:07;3.95;;;2.53;;
30697;SDS011;17448;47.200;10.902;2023-05-03T22:08:33;4.82;;;2.90;;
30697;SDS011;17448;47.200;10.902;2023-05-03T22:11:03;5.47;;;3.20;;
30697;SDS011;17448;47.200;10.902;2023-05-03T22:13:31;3.90;;;3.22;;
30697;SDS011;17448;47.200;10.902;2023-05-03T22:16:07;6.30;;;3.10;;
30697;SDS011;17448;47.200;10.902;2023-05-03T22:18:35;5.43;;;3.00;;
30697;SDS011;17448;47.200;10.902;2023-05-03T22:21:02;6.10;;;2.95;;
30697;SDS011;17448;47.200;10.902;2023-05-03T22:23:32;4.28;;;3.00;;
30697;SDS011;17448;47.200;10.902;2023-05-03T22:25:59;3.35;;;2.80;;
30697;SDS011;17448;47.200;10.902;2023-05-03T22:28:25;3.72;;;2.40;;
30697;SDS011;17448;47.200;10.902;2023-05-03T22:30:52;5.72;;;3.05;;
30697;SDS011;17448;47.200;10.902;2023-05-03T22:33:18;4.43;;;2.90;;
30697;SDS011;17448;47.200;10.902;2023-05-03T22:35:45;6.60;;;2.80;;
30697;SDS011;17448;47.200;10.902;2023-05-03T22:38:11;2.83;;;2.53;;
30697;SDS011;17448;47.200;10.902;2023-05-03T22:40:38;2.90;;;2.60;;
30697;SDS011;17448;47.200;10.902;2023-05-03T22:43:04;5.28;;;3.00;;
30697;SDS011;17448;47.200;10.902;2023-05-03T22:45:31;3.70;;;2.92;;
30697;SDS011;17448;47.200;10.902;2023-05-03T22:47:57;2.63;;;2.42;;
30697;SDS011;17448;47.200;10.902;2023-05-03T22:50:24;3.88;;;3.00;;
30697;SDS011;17448;47.200;10.902;2023-05-03T22:52:51;5.20;;;2.80;;
30697;SDS011;17448;47.200;10.902;2023-05-03T22:55:21;9.27;;;2.88;;
30697;SDS011;17448;47.200;10.902;2023-05-03T22:57:47;4.32;;;2.85;;
30697;SDS011;17448;47.200;10.902;2023-05-03T23:00:14;3.70;;;2.83;;
30697;SDS011;17448;47.200;10.902;2023-05-03T23:02:41;3.42;;;2.70;;
30697;SDS011;17448;47.200;10.902;2023-05-03T23:05:07;4.53;;;3.13;;
30697;SDS011;17448;47.200;10.902;2023-05-03T23:07:34;5.22;;;3.10;;
30697;SDS011;17448;47.200;10.902;2023-05-03T23:10:01;5.65;;;3.13;;
30697;SDS011;17448;47.200;10.902;2023-05-03T23:12:29;3.45;;;2.70;;
30697;SDS011;17448;47.200;10.902;2023-05-03T23:14:55;5.18;;;2.78;;
30697;SDS011;17448;47.200;10.902;2023-05-03T23:17:22;3.83;;;2.85;;
30697;SDS011;17448;47.200;10.902;2023-05-03T23:19:48;5.45;;;3.22;;
30697;SDS011;17448;47.200;10.902;2023-05-03T23:22:15;5.72;;;2.88;;
30697;SDS011;17448;47.200;10.902;2023-05-03T23:24:41;5.35;;;3.08;;
30697;SDS011;17448;47.200;10.902;2023-05-03T23:27:08;6.13;;;3.00;;
30697;SDS011;17448;47.200;10.902;2023-05-03T23:29:36;4.93;;;3.30;;
30697;SDS011;17448;47.200;10.902;2023-05-03T23:32:03;5.13;;;3.00;;
30697;SDS011;17448;47.200;10.902;2023-05-03T23:34:29;7.03;;;3.15;;
30697;SDS011;17448;47.200;10.902;2023-05-03T23:36:56;6.22;;;2.70;;
30697;SDS011;17448;47.200;10.902;2023-05-03T23:39:22;5.38;;;3.08;;
30697;SDS011;17448;47.200;10.902;2023-05-03T23:41:48;3.28;;;2.92;;